sensor_id;sensor_type;location;lat;lon;timestamp;P1;durP1;ratioP1;P2;durP2;ratioP2
80559;SDS011;70065;42.700;23.316;2024-01-30T00:01:50;21.95;;;11.65;;
80559;SDS011;70065;42.700;23.316;2024-01-30T00:04:16;19.83;;;10.85;;
80559;SDS011;70065;42.700;23.316;2024-01-30T00:06:42;22.90;;;11.27;;
80559;SDS011;70065;42.700;23.316;2024-01-30T00:09:11;19.98;;;10.63;;
80559;SDS011;70065;42.700;23.316;2024-01-30T00:11:39;20.65;;;11.88;;
80559;SDS011;70065;42.700;23.316;2024-01-30T00:14:05;17.88;;;10.93;;
80559;SDS011;70065;42.700;23.316;2024-01-30T00:16:31;20.55;;;11.10;;
80559;SDS011;70065;42.700;23.316;2024-01-30T00:18:57;18.65;;;10.65;;
80559;SDS011;70065;42.700;23.316;2024-01-30T00:21:23;21.20;;;10.95;;
80559;SDS011;70065;42.700;23.316;2024-01-30T00:23:48;19.40;;;11.45;;
80559;SDS011;70065;42.700;23.316;2024-01-30T00:26:14;18.48;;;10.57;;
80559;SDS011;70065;42.700;23.316;2024-01-30T00:28:41;20.50;;;11.68;;
80559;SDS011;70065;42.700;23.316;2024-01-30T00:31:07;19.35;;;11.05;;
80559;SDS011;70065;42.700;23.316;2024-01-30T00:33:37;18.98;;;11.23;;
80559;SDS011;70065;42.700;23.316;2024-01-30T00:36:04;18.98;;;11.95;;
80559;SDS011;70065;42.700;23.316;2024-01-30T00:38:31;18.90;;;11.98;;
80559;SDS011;70065;42.700;23.316;2024-01-30T00:40:57;22.63;;;13.48;;
80559;SDS011;70065;42.700;23.316;2024-01-30T00:43:23;19.38;;;12.68;;
80559;SDS011;70065;42.700;23.316;2024-01-30T00:45:49;18.58;;;11.40;;
80559;SDS011;70065;42.700;23.316;2024-01-30T00:48:17;18.52;;;12.57;;
80559;SDS011;70065;42.700;23.316;2024-01-30T00:50:43;17.40;;;11.32;;
80559;SDS011;70065;42.700;23.316;2024-01-30T00:53:09;17.42;;;11.30;;
80559;SDS011;70065;42.700;23.316;2024-01-30T00:55:35;19.00;;;12.50;;
80559;SDS011;70065;42.700;23.316;2024-01-30T00:58:00;17.80;;;11.55;;
80559;SDS011;70065;42.700;23.316;2024-01-30T01:00:26;16.90;;;11.63;;
80559;SDS011;70065;42.700;23.316;2024-01-30T01:02:57;17.48;;;11.45;;
80559;SDS011;70065;42.700;23.316;2024-01-30T01:05:23;19.23;;;12.10;;
80559;SDS011;70065;42.700;23.316;2024-01-30T01:07:49;16.25;;;11.20;;
80559;SDS011;70065;42.700;23.316;2024-01-30T01:10:16;17.10;;;12.05;;
80559;SDS011;70065;42.700;23.316;2024-01-30T01:12:43;20.13;;;12.75;;
80559;SDS011;70065;42.700;23.316;2024-01-30T01:15:13;17.02;;;11.68;;
80559;SDS011;70065;42.700;23.316;2024-01-30T01:17:38;21.08;;;12.60;;
80559;SDS011;70065;42.700;23.316;2024-01-30T01:20:05;15.77;;;11.10;;
80559;SDS011;70065;42.700;23.316;2024-01-30T01:22:32;15.57;;;10.52;;
80559;SDS011;70065;42.700;23.316;2024-01-30T01:24:59;20.50;;;12.93;;
80559;SDS011;70065;42.700;23.316;2024-01-30T01:27:25;16.60;;;10.25;;
80559;SDS011;70065;42.700;23.316;2024-01-30T01:29:51;16.70;;;10.90;;
80559;SDS011;70065;42.700;23.316;2024-01-30T01:32:17;16.85;;;10.95;;
80559;SDS011;70065;42.700;23.316;2024-01-30T01:34:43;16.23;;;11.00;;
80559;SDS011;70065;42.700;23.316;2024-01-30T01:37:09;18.52;;;10.93;;
80559;SDS011;70065;42.700;23.316;2024-01-30T01:39:35;14.05;;;9.77;;
80559;SDS011;70065;42.700;23.316;2024-01-30T01:42:01;14.40;;;10.23;;
80559;SDS011;70065;42.700;23.316;2024-01-30T01:44:27;14.15;;;10.00;;
80559;SDS011;70065;42.700;23.316;2024-01-30T01:46:53;14.55;;;10.20;;
80559;SDS011;70065;42.700;23.316;2024-01-30T01:49:24;14.20;;;9.75;;
80559;SDS011;70065;42.700;23.316;2024-01-30T01:51:52;14.63;;;9.30;;
80559;SDS011;70065;42.700;23.316;2024-01-30T01:54:21;15.57;;;11.00;;
80559;SDS011;70065;42.700;23.316;2024-01-30T01:56:49;14.02;;;9.02;;
80559;SDS011;70065;42.700;23.316;2024-01-30T01:59:16;13.07;;;8.93;;
80559;SDS011;70065;42.700;23.316;2024-01-30T02:01:43;14.30;;;9.65;;
80559;SDS011;70065;42.700;23.316;2024-01-30T02:04:10;14.38;;;9.50;;
80559;SDS011;70065;42.700;23.316;2024-01-30T02:06:36;14.43;;;9.70;;
80559;SDS011;70065;42.700;23.316;2024-01-30T02:09:03;13.60;;;9.45;;
80559;SDS011;70065;42.700;23.316;2024-01-30T02:11:29;12.85;;;9.40;;
80559;SDS011;70065;42.700;23.316;2024-01-30T02:13:56;15.02;;;9.50;;
80559;SDS011;70065;42.700;23.316;2024-01-30T02:16:27;14.30;;;9.30;;
80559;SDS011;70065;42.700;23.316;2024-01-30T02:18:53;12.32;;;8.52;;
80559;SDS011;70065;42.700;23.316;2024-01-30T02:21:18;13.02;;;8.75;;
80559;SDS011;70065;42.700;23.316;2024-01-30T02:23:46;10.95;;;8.30;;
80559;SDS011;70065;42.700;23.316;2024-01-30T02:26:12;11.45;;;8.30;;
80559;SDS011;70065;42.700;23.316;2024-01-30T02:28:38;11.48;;;7.85;;
80559;SDS011;70065;42.700;23.316;2024-01-30T02:31:04;11.65;;;8.68;;
80559;SDS011;70065;42.700;23.316;2024-01-30T02:33:30;10.45;;;7.50;;
80559;SDS011;70065;42.700;23.316;2024-01-30T02:35:55;12.30;;;8.00;;
80559;SDS011;70065;42.700;23.316;2024-01-30T02:38:21;10.55;;;8.07;;
80559;SDS011;70065;42.700;23.316;2024-01-30T02:40:48;10.52;;;7.63;;
80559;SDS011;70065;42.700;23.316;2024-01-30T02:43:14;11.30;;;7.93;;
80559;SDS011;70065;42.700;23.316;2024-01-30T02:45:41;11.23;;;8.15;;
80559;SDS011;70065;42.700;23.316;2024-01-30T02:48:06;12.48;;;7.88;;
80559;SDS011;70065;42.700;23.316;2024-01-30T02:50:32;10.60;;;7.55;;
80559;SDS011;70065;42.700;23.316;2024-01-30T02:52:58;12.48;;;8.32;;
80559;SDS011;70065;42.700;23.316;2024-01-30T02:55:24;12.30;;;9.23;;
80559;SDS011;70065;42.700;23.316;2024-01-30T02:57:50;12.05;;;7.57;;
80559;SDS011;70065;42.700;23.316;2024-01-30T03:00:15;12.27;;;8.32;;
80559;SDS011;70065;42.700;23.316;2024-01-30T03:02:41;11.23;;;7.68;;
80559;SDS011;70065;42.700;23.316;2024-01-30T03:05:07;11.13;;;8.13;;
80559;SDS011;70065;42.700;23.316;2024-01-30T03:07:33;13.50;;;9.75;;
80559;SDS011;70065;42.700;23.316;2024-01-30T03:09:59;14.40;;;9.73;;
80559;SDS011;70065;42.700;23.316;2024-01-30T03:12:25;14.52;;;10.75;;
80559;SDS011;70065;42.700;23.316;2024-01-30T03:14:51;14.15;;;9.85;;
80559;SDS011;70065;42.700;23.316;2024-01-30T03:17:17;13.45;;;10.10;;
80559;SDS011;70065;42.700;23.316;2024-01-30T03:19:43;13.32;;;9.35;;
80559;SDS011;70065;42.700;23.316;2024-01-30T03:22:09;12.27;;;9.35;;
80559;SDS011;70065;42.700;23.316;2024-01-30T03:24:34;11.70;;;8.80;;
80559;SDS011;70065;42.700;23.316;2024-01-30T03:27:00;11.82;;;8.77;;
80559;SDS011;70065;42.700;23.316;2024-01-30T03:29:26;11.40;;;8.30;;
80559;SDS011;70065;42.700;23.316;2024-01-30T03:31:52;9.30;;;7.07;;
80559;SDS011;70065;42.700;23.316;2024-01-30T03:34:17;9.23;;;7.25;;
80559;SDS011;70065;42.700;23.316;2024-01-30T03:36:43;10.60;;;7.40;;
80559;SDS011;70065;42.700;23.316;2024-01-30T03:39:09;11.45;;;8.27;;
80559;SDS011;70065;42.700;23.316;2024-01-30T03:41:35;9.13;;;6.75;;
80559;SDS011;70065;42.700;23.316;2024-01-30T03:44:01;9.07;;;6.82;;
80559;SDS011;70065;42.700;23.316;2024-01-30T03:46:27;9.00;;;6.57;;
80559;SDS011;70065;42.700;23.316;2024-01-30T03:48:52;10.80;;;6.93;;
80559;SDS011;70065;42.700;23.316;2024-01-30T03:51:18;9.20;;;6.85;;
80559;SDS011;70065;42.700;23.316;2024-01-30T03:53:44;8.57;;;6.00;;
80559;SDS011;70065;42.700;23.316;2024-01-30T03:56:13;9.55;;;6.32;;
80559;SDS011;70065;42.700;23.316;2024-01-30T03:58:39;9.43;;;6.28;;
80559;SDS011;70065;42.700;23.316;2024-01-30T04:01:05;8.30;;;5.90;;
80559;SDS011;70065;42.700;23.316;2024-01-30T04:03:30;8.63;;;5.60;;
80559;SDS011;70065;42.700;23.316;2024-01-30T04:05:56;8.13;;;5.85;;
80559;SDS011;70065;42.700;23.316;2024-01-30T04:08:22;8.35;;;5.78;;
80559;SDS011;70065;42.700;23.316;2024-01-30T04:10:49;8.27;;;5.32;;
80559;SDS011;70065;42.700;23.316;2024-01-30T04:13:14;8.48;;;5.60;;
80559;SDS011;70065;42.700;23.316;2024-01-30T04:15:40;8.20;;;5.78;;
80559;SDS011;70065;42.700;23.316;2024-01-30T04:18:06;7.88;;;5.30;;
80559;SDS011;70065;42.700;23.316;2024-01-30T04:20:32;7.68;;;5.75;;
80559;SDS011;70065;42.700;23.316;2024-01-30T04:22:57;9.82;;;6.78;;
80559;SDS011;70065;42.700;23.316;2024-01-30T04:25:23;8.95;;;6.50;;
80559;SDS011;70065;42.700;23.316;2024-01-30T04:27:49;10.98;;;7.53;;
80559;SDS011;70065;42.700;23.316;2024-01-30T04:30:15;10.68;;;7.65;;
80559;SDS011;70065;42.700;23.316;2024-01-30T04:32:41;11.15;;;8.35;;
80559;SDS011;70065;42.700;23.316;2024-01-30T04:35:06;14.25;;;10.10;;
80559;SDS011;70065;42.700;23.316;2024-01-30T04:37:32;12.90;;;9.73;;
80559;SDS011;70065;42.700;23.316;2024-01-30T04:39:58;14.82;;;10.52;;
80559;SDS011;70065;42.700;23.316;2024-01-30T04:42:24;14.45;;;9.90;;
80559;SDS011;70065;42.700;23.316;2024-01-30T04:44:50;16.48;;;11.75;;
80559;SDS011;70065;42.700;23.316;2024-01-30T04:47:15;14.45;;;11.18;;
80559;SDS011;70065;42.700;23.316;2024-01-30T04:49:42;14.27;;;10.60;;
80559;SDS011;70065;42.700;23.316;2024-01-30T04:52:07;15.82;;;11.38;;
80559;SDS011;70065;42.700;23.316;2024-01-30T04:54:34;13.10;;;10.05;;
80559;SDS011;70065;42.700;23.316;2024-01-30T04:57:00;14.15;;;10.05;;
80559;SDS011;70065;42.700;23.316;2024-01-30T04:59:30;13.25;;;9.70;;
80559;SDS011;70065;42.700;23.316;2024-01-30T05:01:56;12.75;;;9.25;;
80559;SDS011;70065;42.700;23.316;2024-01-30T05:04:22;12.88;;;9.38;;
80559;SDS011;70065;42.700;23.316;2024-01-30T05:06:47;11.07;;;8.27;;
80559;SDS011;70065;42.700;23.316;2024-01-30T05:09:13;11.25;;;8.90;;
80559;SDS011;70065;42.700;23.316;2024-01-30T05:11:39;11.75;;;8.07;;
80559;SDS011;70065;42.700;23.316;2024-01-30T05:14:06;12.43;;;8.95;;
80559;SDS011;70065;42.700;23.316;2024-01-30T05:16:33;11.07;;;7.55;;
80559;SDS011;70065;42.700;23.316;2024-01-30T05:18:59;13.07;;;8.98;;
80559;SDS011;70065;42.700;23.316;2024-01-30T05:21:25;9.98;;;7.38;;
80559;SDS011;70065;42.700;23.316;2024-01-30T05:23:51;10.95;;;7.95;;
80559;SDS011;70065;42.700;23.316;2024-01-30T05:26:16;11.88;;;8.52;;
80559;SDS011;70065;42.700;23.316;2024-01-30T05:28:43;10.77;;;7.68;;
80559;SDS011;70065;42.700;23.316;2024-01-30T05:31:12;10.88;;;8.32;;
80559;SDS011;70065;42.700;23.316;2024-01-30T05:33:37;11.75;;;8.52;;
80559;SDS011;70065;42.700;23.316;2024-01-30T05:36:03;10.05;;;7.85;;
80559;SDS011;70065;42.700;23.316;2024-01-30T05:38:29;12.70;;;9.52;;
80559;SDS011;70065;42.700;23.316;2024-01-30T05:40:57;10.73;;;7.78;;
80559;SDS011;70065;42.700;23.316;2024-01-30T05:43:23;12.27;;;8.07;;
80559;SDS011;70065;42.700;23.316;2024-01-30T05:45:49;10.25;;;7.35;;
80559;SDS011;70065;42.700;23.316;2024-01-30T05:48:16;9.18;;;6.70;;
80559;SDS011;70065;42.700;23.316;2024-01-30T05:50:41;11.35;;;7.82;;
80559;SDS011;70065;42.700;23.316;2024-01-30T05:53:07;10.75;;;7.63;;
80559;SDS011;70065;42.700;23.316;2024-01-30T05:55:33;11.40;;;8.48;;
80559;SDS011;70065;42.700;23.316;2024-01-30T05:57:59;10.30;;;7.53;;
80559;SDS011;70065;42.700;23.316;2024-01-30T06:00:25;11.00;;;8.50;;
80559;SDS011;70065;42.700;23.316;2024-01-30T06:02:50;10.68;;;8.05;;
80559;SDS011;70065;42.700;23.316;2024-01-30T06:05:16;10.45;;;8.00;;
80559;SDS011;70065;42.700;23.316;2024-01-30T06:07:42;12.45;;;8.20;;
80559;SDS011;70065;42.700;23.316;2024-01-30T06:10:07;12.18;;;8.02;;
80559;SDS011;70065;42.700;23.316;2024-01-30T06:12:34;10.55;;;7.65;;
80559;SDS011;70065;42.700;23.316;2024-01-30T06:15:00;10.65;;;7.07;;
80559;SDS011;70065;42.700;23.316;2024-01-30T06:17:27;10.77;;;7.43;;
80559;SDS011;70065;42.700;23.316;2024-01-30T06:19:53;9.82;;;6.85;;
80559;SDS011;70065;42.700;23.316;2024-01-30T06:22:18;10.20;;;7.07;;
80559;SDS011;70065;42.700;23.316;2024-01-30T06:24:45;11.10;;;6.93;;
80559;SDS011;70065;42.700;23.316;2024-01-30T06:27:13;9.60;;;7.18;;
80559;SDS011;70065;42.700;23.316;2024-01-30T06:29:38;11.45;;;6.88;;
80559;SDS011;70065;42.700;23.316;2024-01-30T06:32:05;9.63;;;7.22;;
80559;SDS011;70065;42.700;23.316;2024-01-30T06:34:31;9.55;;;6.72;;
80559;SDS011;70065;42.700;23.316;2024-01-30T06:36:57;8.93;;;6.50;;
80559;SDS011;70065;42.700;23.316;2024-01-30T06:39:23;9.43;;;6.40;;
80559;SDS011;70065;42.700;23.316;2024-01-30T06:41:48;9.40;;;6.78;;
80559;SDS011;70065;42.700;23.316;2024-01-30T06:44:14;9.07;;;6.65;;
80559;SDS011;70065;42.700;23.316;2024-01-30T06:46:40;9.20;;;6.60;;
80559;SDS011;70065;42.700;23.316;2024-01-30T06:49:06;8.52;;;6.03;;
80559;SDS011;70065;42.700;23.316;2024-01-30T06:51:32;8.57;;;6.25;;
80559;SDS011;70065;42.700;23.316;2024-01-30T06:53:57;8.52;;;6.25;;
80559;SDS011;70065;42.700;23.316;2024-01-30T06:56:23;13.50;;;8.82;;
80559;SDS011;70065;42.700;23.316;2024-01-30T06:58:52;10.80;;;8.48;;
80559;SDS011;70065;42.700;23.316;2024-01-30T07:01:18;11.18;;;8.23;;
80559;SDS011;70065;42.700;23.316;2024-01-30T07:03:44;10.70;;;7.22;;
80559;SDS011;70065;42.700;23.316;2024-01-30T07:06:09;11.30;;;7.53;;
80559;SDS011;70065;42.700;23.316;2024-01-30T07:08:38;10.68;;;7.43;;
80559;SDS011;70065;42.700;23.316;2024-01-30T07:11:04;9.75;;;6.40;;
80559;SDS011;70065;42.700;23.316;2024-01-30T07:13:31;9.60;;;6.90;;
80559;SDS011;70065;42.700;23.316;2024-01-30T07:15:57;10.15;;;7.20;;
80559;SDS011;70065;42.700;23.316;2024-01-30T07:18:23;9.38;;;6.95;;
80559;SDS011;70065;42.700;23.316;2024-01-30T07:20:49;10.48;;;7.20;;
80559;SDS011;70065;42.700;23.316;2024-01-30T07:23:15;8.73;;;6.25;;
80559;SDS011;70065;42.700;23.316;2024-01-30T07:25:45;8.52;;;6.20;;
80559;SDS011;70065;42.700;23.316;2024-01-30T07:28:13;9.05;;;6.00;;
80559;SDS011;70065;42.700;23.316;2024-01-30T07:30:41;9.20;;;6.13;;
80559;SDS011;70065;42.700;23.316;2024-01-30T07:33:08;9.93;;;5.53;;
80559;SDS011;70065;42.700;23.316;2024-01-30T07:35:34;8.82;;;6.00;;
80559;SDS011;70065;42.700;23.316;2024-01-30T07:38:01;8.40;;;5.63;;
80559;SDS011;70065;42.700;23.316;2024-01-30T07:40:27;8.05;;;5.68;;
80559;SDS011;70065;42.700;23.316;2024-01-30T07:42:53;8.65;;;5.47;;
80559;SDS011;70065;42.700;23.316;2024-01-30T07:45:19;6.70;;;5.20;;
80559;SDS011;70065;42.700;23.316;2024-01-30T07:47:49;8.40;;;5.50;;
80559;SDS011;70065;42.700;23.316;2024-01-30T07:50:15;8.25;;;4.95;;
80559;SDS011;70065;42.700;23.316;2024-01-30T07:52:42;8.45;;;4.90;;
80559;SDS011;70065;42.700;23.316;2024-01-30T07:55:08;8.27;;;5.38;;
80559;SDS011;70065;42.700;23.316;2024-01-30T07:57:34;9.90;;;5.22;;
80559;SDS011;70065;42.700;23.316;2024-01-30T08:00:00;7.30;;;4.82;;
80559;SDS011;70065;42.700;23.316;2024-01-30T08:02:28;7.63;;;4.80;;
80559;SDS011;70065;42.700;23.316;2024-01-30T08:04:53;7.25;;;4.65;;
80559;SDS011;70065;42.700;23.316;2024-01-30T08:07:19;6.22;;;4.30;;
80559;SDS011;70065;42.700;23.316;2024-01-30T08:09:47;6.15;;;4.18;;
80559;SDS011;70065;42.700;23.316;2024-01-30T08:12:12;8.65;;;4.45;;
80559;SDS011;70065;42.700;23.316;2024-01-30T08:14:38;6.88;;;4.35;;
80559;SDS011;70065;42.700;23.316;2024-01-30T08:17:06;6.32;;;4.20;;
80559;SDS011;70065;42.700;23.316;2024-01-30T08:19:32;7.13;;;4.47;;
80559;SDS011;70065;42.700;23.316;2024-01-30T08:21:58;6.68;;;4.60;;
80559;SDS011;70065;42.700;23.316;2024-01-30T08:24:24;7.40;;;4.20;;
80559;SDS011;70065;42.700;23.316;2024-01-30T08:26:50;5.32;;;4.25;;
80559;SDS011;70065;42.700;23.316;2024-01-30T08:29:16;6.97;;;4.25;;
80559;SDS011;70065;42.700;23.316;2024-01-30T08:31:41;9.95;;;4.43;;
80559;SDS011;70065;42.700;23.316;2024-01-30T08:34:07;7.03;;;4.25;;
80559;SDS011;70065;42.700;23.316;2024-01-30T08:36:33;8.52;;;4.40;;
80559;SDS011;70065;42.700;23.316;2024-01-30T08:38:59;7.82;;;4.22;;
80559;SDS011;70065;42.700;23.316;2024-01-30T08:41:24;6.38;;;4.10;;
80559;SDS011;70065;42.700;23.316;2024-01-30T08:43:51;5.75;;;3.92;;
80559;SDS011;70065;42.700;23.316;2024-01-30T08:46:18;7.30;;;4.15;;
80559;SDS011;70065;42.700;23.316;2024-01-30T08:48:44;5.90;;;4.07;;
80559;SDS011;70065;42.700;23.316;2024-01-30T08:51:11;9.15;;;4.20;;
80559;SDS011;70065;42.700;23.316;2024-01-30T08:53:37;7.85;;;4.30;;
80559;SDS011;70065;42.700;23.316;2024-01-30T08:56:03;6.95;;;3.90;;
80559;SDS011;70065;42.700;23.316;2024-01-30T08:58:29;7.05;;;4.60;;
80559;SDS011;70065;42.700;23.316;2024-01-30T09:00:55;9.02;;;4.32;;
80559;SDS011;70065;42.700;23.316;2024-01-30T09:03:21;6.05;;;4.20;;
80559;SDS011;70065;42.700;23.316;2024-01-30T09:05:47;6.20;;;4.28;;
80559;SDS011;70065;42.700;23.316;2024-01-30T09:08:12;8.73;;;5.05;;
80559;SDS011;70065;42.700;23.316;2024-01-30T09:10:38;8.15;;;5.05;;
80559;SDS011;70065;42.700;23.316;2024-01-30T09:13:04;9.43;;;6.18;;
80559;SDS011;70065;42.700;23.316;2024-01-30T09:15:30;10.15;;;7.03;;
80559;SDS011;70065;42.700;23.316;2024-01-30T09:17:55;9.63;;;6.57;;
80559;SDS011;70065;42.700;23.316;2024-01-30T09:20:21;10.23;;;6.75;;
80559;SDS011;70065;42.700;23.316;2024-01-30T09:22:48;12.30;;;8.27;;
80559;SDS011;70065;42.700;23.316;2024-01-30T09:25:14;14.40;;;10.68;;
80559;SDS011;70065;42.700;23.316;2024-01-30T09:27:40;15.18;;;9.35;;
80559;SDS011;70065;42.700;23.316;2024-01-30T09:30:06;13.52;;;7.82;;
80559;SDS011;70065;42.700;23.316;2024-01-30T09:32:32;12.10;;;7.65;;
80559;SDS011;70065;42.700;23.316;2024-01-30T09:34:58;12.07;;;7.60;;
80559;SDS011;70065;42.700;23.316;2024-01-30T09:37:23;11.52;;;7.28;;
80559;SDS011;70065;42.700;23.316;2024-01-30T09:39:49;11.35;;;7.63;;
80559;SDS011;70065;42.700;23.316;2024-01-30T09:42:21;10.05;;;6.55;;
80559;SDS011;70065;42.700;23.316;2024-01-30T09:45:01;12.23;;;7.93;;
80559;SDS011;70065;42.700;23.316;2024-01-30T09:47:40;15.80;;;9.65;;
80559;SDS011;70065;42.700;23.316;2024-01-30T09:50:10;13.20;;;7.97;;
80559;SDS011;70065;42.700;23.316;2024-01-30T09:52:37;13.35;;;9.98;;
80559;SDS011;70065;42.700;23.316;2024-01-30T09:55:04;18.00;;;10.65;;
80559;SDS011;70065;42.700;23.316;2024-01-30T09:57:30;15.73;;;10.82;;
80559;SDS011;70065;42.700;23.316;2024-01-30T09:59:56;17.83;;;11.57;;
80559;SDS011;70065;42.700;23.316;2024-01-30T10:02:22;16.55;;;11.75;;
80559;SDS011;70065;42.700;23.316;2024-01-30T10:04:48;18.58;;;13.25;;
80559;SDS011;70065;42.700;23.316;2024-01-30T10:07:15;18.60;;;13.77;;
80559;SDS011;70065;42.700;23.316;2024-01-30T10:09:41;20.50;;;13.38;;
80559;SDS011;70065;42.700;23.316;2024-01-30T10:12:08;21.38;;;14.32;;
80559;SDS011;70065;42.700;23.316;2024-01-30T10:14:37;18.92;;;13.45;;
80559;SDS011;70065;42.700;23.316;2024-01-30T10:17:04;19.95;;;14.15;;
80559;SDS011;70065;42.700;23.316;2024-01-30T10:19:30;18.08;;;13.20;;
80559;SDS011;70065;42.700;23.316;2024-01-30T10:21:56;18.58;;;13.13;;
80559;SDS011;70065;42.700;23.316;2024-01-30T10:24:25;20.90;;;14.65;;
80559;SDS011;70065;42.700;23.316;2024-01-30T10:26:51;19.50;;;14.10;;
80559;SDS011;70065;42.700;23.316;2024-01-30T10:29:18;21.25;;;14.95;;
80559;SDS011;70065;42.700;23.316;2024-01-30T10:31:44;22.23;;;15.60;;
80559;SDS011;70065;42.700;23.316;2024-01-30T10:34:10;22.42;;;15.32;;
80559;SDS011;70065;42.700;23.316;2024-01-30T10:36:39;21.90;;;16.33;;
80559;SDS011;70065;42.700;23.316;2024-01-30T10:39:08;21.33;;;16.58;;
80559;SDS011;70065;42.700;23.316;2024-01-30T10:41:38;22.63;;;15.48;;
80559;SDS011;70065;42.700;23.316;2024-01-30T10:44:09;23.80;;;17.08;;
80559;SDS011;70065;42.700;23.316;2024-01-30T10:46:37;22.25;;;16.15;;
80559;SDS011;70065;42.700;23.316;2024-01-30T10:49:04;22.80;;;16.88;;
80559;SDS011;70065;42.700;23.316;2024-01-30T10:51:31;20.25;;;14.90;;
80559;SDS011;70065;42.700;23.316;2024-01-30T10:53:58;21.55;;;15.13;;
80559;SDS011;70065;42.700;23.316;2024-01-30T10:56:25;21.27;;;14.73;;
80559;SDS011;70065;42.700;23.316;2024-01-30T10:58:51;21.38;;;14.77;;
80559;SDS011;70065;42.700;23.316;2024-01-30T11:01:21;19.25;;;13.73;;
80559;SDS011;70065;42.700;23.316;2024-01-30T11:03:57;23.65;;;16.00;;
80559;SDS011;70065;42.700;23.316;2024-01-30T11:06:23;22.17;;;16.40;;
80559;SDS011;70065;42.700;23.316;2024-01-30T11:09:05;26.20;;;18.90;;
80559;SDS011;70065;42.700;23.316;2024-01-30T11:11:56;27.80;;;18.95;;
80559;SDS011;70065;42.700;23.316;2024-01-30T11:14:27;23.50;;;18.20;;
80559;SDS011;70065;42.700;23.316;2024-01-30T11:16:57;24.67;;;16.88;;
80559;SDS011;70065;42.700;23.316;2024-01-30T11:19:25;24.58;;;18.23;;
80559;SDS011;70065;42.700;23.316;2024-01-30T11:21:52;25.08;;;17.55;;
80559;SDS011;70065;42.700;23.316;2024-01-30T11:24:22;22.25;;;16.55;;
80559;SDS011;70065;42.700;23.316;2024-01-30T11:26:49;25.52;;;16.73;;
80559;SDS011;70065;42.700;23.316;2024-01-30T11:29:20;24.75;;;16.10;;
80559;SDS011;70065;42.700;23.316;2024-01-30T11:31:53;22.88;;;16.10;;
80559;SDS011;70065;42.700;23.316;2024-01-30T11:34:20;23.85;;;15.07;;
80559;SDS011;70065;42.700;23.316;2024-01-30T11:36:58;20.90;;;14.70;;
80559;SDS011;70065;42.700;23.316;2024-01-30T11:39:31;21.98;;;13.82;;
80559;SDS011;70065;42.700;23.316;2024-01-30T11:41:57;20.63;;;13.52;;
80559;SDS011;70065;42.700;23.316;2024-01-30T11:44:24;18.65;;;13.63;;
80559;SDS011;70065;42.700;23.316;2024-01-30T11:46:51;18.42;;;12.95;;
80559;SDS011;70065;42.700;23.316;2024-01-30T11:49:18;18.33;;;12.88;;
80559;SDS011;70065;42.700;23.316;2024-01-30T11:51:47;16.42;;;12.32;;
80559;SDS011;70065;42.700;23.316;2024-01-30T11:54:17;19.88;;;12.48;;
80559;SDS011;70065;42.700;23.316;2024-01-30T11:56:43;17.77;;;11.90;;
80559;SDS011;70065;42.700;23.316;2024-01-30T11:59:09;17.13;;;12.07;;
80559;SDS011;70065;42.700;23.316;2024-01-30T12:01:34;18.13;;;12.93;;
80559;SDS011;70065;42.700;23.316;2024-01-30T12:04:01;17.98;;;12.48;;
80559;SDS011;70065;42.700;23.316;2024-01-30T12:06:28;17.08;;;12.63;;
80559;SDS011;70065;42.700;23.316;2024-01-30T12:09:00;16.80;;;12.23;;
80559;SDS011;70065;42.700;23.316;2024-01-30T12:11:29;15.50;;;11.63;;
80559;SDS011;70065;42.700;23.316;2024-01-30T12:13:55;17.63;;;12.68;;
80559;SDS011;70065;42.700;23.316;2024-01-30T12:16:21;20.25;;;12.05;;
80559;SDS011;70065;42.700;23.316;2024-01-30T12:18:48;16.58;;;10.55;;
80559;SDS011;70065;42.700;23.316;2024-01-30T12:21:16;15.52;;;10.98;;
80559;SDS011;70065;42.700;23.316;2024-01-30T12:23:43;14.27;;;10.25;;
80559;SDS011;70065;42.700;23.316;2024-01-30T12:26:10;13.88;;;9.82;;
80559;SDS011;70065;42.700;23.316;2024-01-30T12:28:36;16.70;;;9.75;;
80559;SDS011;70065;42.700;23.316;2024-01-30T12:31:02;14.30;;;10.13;;
80559;SDS011;70065;42.700;23.316;2024-01-30T12:33:29;13.40;;;9.48;;
80559;SDS011;70065;42.700;23.316;2024-01-30T12:35:55;14.15;;;9.77;;
80559;SDS011;70065;42.700;23.316;2024-01-30T12:38:22;13.35;;;8.82;;
80559;SDS011;70065;42.700;23.316;2024-01-30T12:40:49;15.52;;;9.90;;
80559;SDS011;70065;42.700;23.316;2024-01-30T12:43:20;14.05;;;10.13;;
80559;SDS011;70065;42.700;23.316;2024-01-30T12:45:46;14.48;;;10.32;;
80559;SDS011;70065;42.700;23.316;2024-01-30T12:48:12;13.02;;;9.20;;
80559;SDS011;70065;42.700;23.316;2024-01-30T12:50:38;17.35;;;10.02;;
80559;SDS011;70065;42.700;23.316;2024-01-30T12:53:04;17.58;;;10.38;;
80559;SDS011;70065;42.700;23.316;2024-01-30T12:55:30;17.35;;;10.95;;
80559;SDS011;70065;42.700;23.316;2024-01-30T12:57:56;15.02;;;10.43;;
80559;SDS011;70065;42.700;23.316;2024-01-30T13:00:22;22.10;;;10.13;;
80559;SDS011;70065;42.700;23.316;2024-01-30T13:02:48;15.55;;;10.05;;
80559;SDS011;70065;42.700;23.316;2024-01-30T13:05:13;16.17;;;10.30;;
80559;SDS011;70065;42.700;23.316;2024-01-30T13:07:39;13.95;;;9.23;;
80559;SDS011;70065;42.700;23.316;2024-01-30T13:10:05;16.10;;;10.52;;
80559;SDS011;70065;42.700;23.316;2024-01-30T13:12:31;17.33;;;10.20;;
80559;SDS011;70065;42.700;23.316;2024-01-30T13:14:58;16.40;;;9.82;;
80559;SDS011;70065;42.700;23.316;2024-01-30T13:17:26;15.80;;;10.77;;
80559;SDS011;70065;42.700;23.316;2024-01-30T13:19:52;14.13;;;10.65;;
80559;SDS011;70065;42.700;23.316;2024-01-30T13:22:19;13.80;;;9.88;;
80559;SDS011;70065;42.700;23.316;2024-01-30T13:24:48;16.92;;;10.90;;
80559;SDS011;70065;42.700;23.316;2024-01-30T13:27:14;15.10;;;10.68;;
80559;SDS011;70065;42.700;23.316;2024-01-30T13:29:39;16.67;;;11.35;;
80559;SDS011;70065;42.700;23.316;2024-01-30T13:32:05;13.60;;;9.98;;
80559;SDS011;70065;42.700;23.316;2024-01-30T13:34:31;15.50;;;11.27;;
80559;SDS011;70065;42.700;23.316;2024-01-30T13:36:57;17.27;;;10.25;;
80559;SDS011;70065;42.700;23.316;2024-01-30T13:39:22;13.70;;;8.80;;
80559;SDS011;70065;42.700;23.316;2024-01-30T13:41:48;18.58;;;10.50;;
80559;SDS011;70065;42.700;23.316;2024-01-30T13:44:15;20.83;;;12.73;;
80559;SDS011;70065;42.700;23.316;2024-01-30T13:46:42;27.48;;;13.82;;
80559;SDS011;70065;42.700;23.316;2024-01-30T13:49:08;19.20;;;11.65;;
80559;SDS011;70065;42.700;23.316;2024-01-30T13:51:34;21.83;;;11.48;;
80559;SDS011;70065;42.700;23.316;2024-01-30T13:53:59;23.55;;;10.65;;
80559;SDS011;70065;42.700;23.316;2024-01-30T13:56:25;26.58;;;12.32;;
80559;SDS011;70065;42.700;23.316;2024-01-30T13:58:52;25.13;;;13.38;;
80559;SDS011;70065;42.700;23.316;2024-01-30T14:01:18;23.65;;;12.10;;
80559;SDS011;70065;42.700;23.316;2024-01-30T14:03:44;20.25;;;11.98;;
80559;SDS011;70065;42.700;23.316;2024-01-30T14:06:10;26.30;;;14.18;;
80559;SDS011;70065;42.700;23.316;2024-01-30T14:08:36;25.85;;;15.75;;
80559;SDS011;70065;42.700;23.316;2024-01-30T14:11:02;26.90;;;15.13;;
80559;SDS011;70065;42.700;23.316;2024-01-30T14:13:28;27.73;;;17.13;;
80559;SDS011;70065;42.700;23.316;2024-01-30T14:15:55;26.60;;;14.00;;